sensor_id;sensor_type;location;lat;lon;timestamp;P1;durP1;ratioP1;P2;durP2;ratioP2
38683;SDS011;24910;53.248;-6.134;2022-12-29T00:00:18;5.28;;;1.42;;
38683;SDS011;24910;53.248;-6.134;2022-12-29T00:02:49;2.22;;;1.48;;
38683;SDS011;24910;53.248;-6.134;2022-12-29T00:05:18;4.60;;;1.60;;
38683;SDS011;24910;53.248;-6.134;2022-12-29T00:07:47;3.53;;;1.77;;
38683;SDS011;24910;53.248;-6.134;2022-12-29T00:10:16;5.22;;;1.60;;
38683;SDS011;24910;53.248;-6.134;2022-12-29T00:12:47;2.17;;;1.20;;
38683;SDS011;24910;53.248;-6.134;2022-12-29T00:15:33;2.22;;;1.27;;
38683;SDS011;24910;53.248;-6.134;2022-12-29T00:18:07;3.10;;;1.23;;
38683;SDS011;24910;53.248;-6.134;2022-12-29T00:20:36;5.22;;;1.55;;
38683;SDS011;24910;53.248;-6.134;2022-12-29T00:23:23;3.55;;;1.30;;
38683;SDS011;24910;53.248;-6.134;2022-12-29T00:26:12;2.75;;;1.20;;
38683;SDS011;24910;53.248;-6.134;2022-12-29T00:29:00;5.63;;;1.33;;
38683;SDS011;24910;53.248;-6.134;2022-12-29T00:31:48;5.13;;;1.40;;
38683;SDS011;24910;53.248;-6.134;2022-12-29T00:34:34;3.58;;;1.10;;
38683;SDS011;24910;53.248;-6.134;2022-12-29T00:37:21;2.53;;;1.17;;
38683;SDS011;24910;53.248;-6.134;2022-12-29T00:40:10;6.60;;;1.30;;
38683;SDS011;24910;53.248;-6.134;2022-12-29T00:42:57;3.05;;;1.30;;
38683;SDS011;24910;53.248;-6.134;2022-12-29T00:45:45;6.57;;;1.33;;
38683;SDS011;24910;53.248;-6.134;2022-12-29T00:48:14;5.50;;;1.73;;
38683;SDS011;24910;53.248;-6.134;2022-12-29T00:51:03;8.82;;;2.80;;
38683;SDS011;24910;53.248;-6.134;2022-12-29T00:53:33;7.40;;;2.70;;
38683;SDS011;24910;53.248;-6.134;2022-12-29T00:56:02;7.72;;;1.90;;
38683;SDS011;24910;53.248;-6.134;2022-12-29T00:58:33;3.80;;;0.97;;
38683;SDS011;24910;53.248;-6.134;2022-12-29T01:01:03;5.07;;;1.02;;
38683;SDS011;24910;53.248;-6.134;2022-12-29T01:03:35;1.55;;;0.90;;
38683;SDS011;24910;53.248;-6.134;2022-12-29T01:06:08;4.77;;;1.50;;
38683;SDS011;24910;53.248;-6.134;2022-12-29T01:08:38;6.18;;;1.63;;
38683;SDS011;24910;53.248;-6.134;2022-12-29T01:11:08;4.68;;;1.50;;
38683;SDS011;24910;53.248;-6.134;2022-12-29T01:13:37;11.82;;;1.25;;
38683;SDS011;24910;53.248;-6.134;2022-12-29T01:16:12;9.15;;;1.30;;
38683;SDS011;24910;53.248;-6.134;2022-12-29T01:18:41;5.77;;;1.13;;
38683;SDS011;24910;53.248;-6.134;2022-12-29T01:21:10;6.20;;;1.20;;
38683;SDS011;24910;53.248;-6.134;2022-12-29T01:23:40;4.68;;;1.05;;
38683;SDS011;24910;53.248;-6.134;2022-12-29T01:26:09;5.10;;;1.10;;
38683;SDS011;24910;53.248;-6.134;2022-12-29T01:28:38;5.10;;;1.20;;
38683;SDS011;24910;53.248;-6.134;2022-12-29T01:31:08;5.97;;;1.30;;
38683;SDS011;24910;53.248;-6.134;2022-12-29T01:33:40;5.18;;;1.08;;
38683;SDS011;24910;53.248;-6.134;2022-12-29T01:36:10;3.92;;;1.00;;
38683;SDS011;24910;53.248;-6.134;2022-12-29T01:38:41;2.72;;;1.00;;
38683;SDS011;24910;53.248;-6.134;2022-12-29T01:41:11;3.35;;;1.10;;
38683;SDS011;24910;53.248;-6.134;2022-12-29T01:43:42;6.50;;;0.80;;
38683;SDS011;24910;53.248;-6.134;2022-12-29T01:48:47;6.30;;;1.88;;
38683;SDS011;24910;53.248;-6.134;2022-12-29T01:51:16;5.30;;;0.95;;
38683;SDS011;24910;53.248;-6.134;2022-12-29T01:53:45;6.47;;;1.10;;
38683;SDS011;24910;53.248;-6.134;2022-12-29T01:56:15;6.35;;;1.63;;
38683;SDS011;24910;53.248;-6.134;2022-12-29T01:58:48;6.78;;;1.42;;
38683;SDS011;24910;53.248;-6.134;2022-12-29T02:01:24;6.65;;;0.75;;
38683;SDS011;24910;53.248;-6.134;2022-12-29T02:03:54;7.47;;;1.10;;
38683;SDS011;24910;53.248;-6.134;2022-12-29T02:06:25;3.28;;;0.88;;
38683;SDS011;24910;53.248;-6.134;2022-12-29T02:08:57;4.47;;;1.25;;
38683;SDS011;24910;53.248;-6.134;2022-12-29T02:11:27;3.92;;;0.80;;
38683;SDS011;24910;53.248;-6.134;2022-12-29T02:13:58;5.05;;;0.90;;
38683;SDS011;24910;53.248;-6.134;2022-12-29T02:16:31;6.55;;;1.80;;
38683;SDS011;24910;53.248;-6.134;2022-12-29T02:19:35;6.25;;;0.88;;
38683;SDS011;24910;53.248;-6.134;2022-12-29T02:22:25;5.18;;;0.98;;
38683;SDS011;24910;53.248;-6.134;2022-12-29T02:31:04;7.80;;;1.10;;
38683;SDS011;24910;53.248;-6.134;2022-12-29T02:33:54;5.10;;;0.90;;
38683;SDS011;24910;53.248;-6.134;2022-12-29T02:36:37;5.20;;;1.02;;
38683;SDS011;24910;53.248;-6.134;2022-12-29T02:39:13;5.63;;;0.98;;
38683;SDS011;24910;53.248;-6.134;2022-12-29T02:41:52;2.60;;;0.60;;
38683;SDS011;24910;53.248;-6.134;2022-12-29T02:44:27;5.05;;;1.15;;
38683;SDS011;24910;53.248;-6.134;2022-12-29T02:47:07;2.90;;;0.98;;
38683;SDS011;24910;53.248;-6.134;2022-12-29T02:52:16;8.38;;;0.85;;
38683;SDS011;24910;53.248;-6.134;2022-12-29T02:54:48;7.35;;;0.73;;
38683;SDS011;24910;53.248;-6.134;2022-12-29T02:57:28;6.90;;;1.05;;
38683;SDS011;24910;53.248;-6.134;2022-12-29T03:00:00;9.25;;;1.35;;
38683;SDS011;24910;53.248;-6.134;2022-12-29T03:08:34;4.05;;;0.82;;
38683;SDS011;24910;53.248;-6.134;2022-12-29T03:11:13;6.05;;;0.90;;
38683;SDS011;24910;53.248;-6.134;2022-12-29T03:13:59;3.50;;;0.80;;
38683;SDS011;24910;53.248;-6.134;2022-12-29T03:16:52;3.25;;;1.25;;
38683;SDS011;24910;53.248;-6.134;2022-12-29T03:19:28;2.65;;;0.95;;
38683;SDS011;24910;53.248;-6.134;2022-12-29T03:22:02;3.95;;;0.90;;
38683;SDS011;24910;53.248;-6.134;2022-12-29T03:25:11;6.03;;;0.82;;
38683;SDS011;24910;53.248;-6.134;2022-12-29T03:27:47;4.53;;;0.93;;
38683;SDS011;24910;53.248;-6.134;2022-12-29T03:30:19;3.38;;;0.60;;
38683;SDS011;24910;53.248;-6.134;2022-12-29T03:32:50;3.63;;;0.85;;
38683;SDS011;24910;53.248;-6.134;2022-12-29T03:35:25;4.28;;;0.70;;
38683;SDS011;24910;53.248;-6.134;2022-12-29T03:38:02;5.45;;;0.90;;
38683;SDS011;24910;53.248;-6.134;2022-12-29T03:40:39;4.13;;;0.73;;
38683;SDS011;24910;53.248;-6.134;2022-12-29T03:43:12;4.20;;;0.70;;
38683;SDS011;24910;53.248;-6.134;2022-12-29T03:45:45;9.60;;;1.00;;
38683;SDS011;24910;53.248;-6.134;2022-12-29T03:48:14;4.88;;;0.85;;
38683;SDS011;24910;53.248;-6.134;2022-12-29T03:50:45;5.75;;;0.98;;
38683;SDS011;24910;53.248;-6.134;2022-12-29T03:53:16;6.15;;;1.13;;
38683;SDS011;24910;53.248;-6.134;2022-12-29T03:55:46;4.85;;;0.80;;
38683;SDS011;24910;53.248;-6.134;2022-12-29T03:58:16;7.43;;;0.80;;
38683;SDS011;24910;53.248;-6.134;2022-12-29T04:00:56;9.30;;;1.00;;
38683;SDS011;24910;53.248;-6.134;2022-12-29T04:03:25;8.63;;;1.00;;
38683;SDS011;24910;53.248;-6.134;2022-12-29T04:05:55;6.38;;;0.90;;
38683;SDS011;24910;53.248;-6.134;2022-12-29T04:08:26;9.07;;;0.98;;
38683;SDS011;24910;53.248;-6.134;2022-12-29T04:10:55;5.63;;;0.90;;
38683;SDS011;24910;53.248;-6.134;2022-12-29T04:13:24;9.20;;;1.02;;
38683;SDS011;24910;53.248;-6.134;2022-12-29T04:15:53;7.25;;;1.10;;
38683;SDS011;24910;53.248;-6.134;2022-12-29T04:18:22;5.68;;;1.05;;
38683;SDS011;24910;53.248;-6.134;2022-12-29T04:20:51;5.75;;;0.93;;
38683;SDS011;24910;53.248;-6.134;2022-12-29T04:23:34;10.55;;;1.58;;
38683;SDS011;24910;53.248;-6.134;2022-12-29T04:26:07;6.93;;;1.23;;
38683;SDS011;24910;53.248;-6.134;2022-12-29T04:28:55;9.25;;;1.33;;
38683;SDS011;24910;53.248;-6.134;2022-12-29T04:31:40;10.43;;;1.80;;
38683;SDS011;24910;53.248;-6.134;2022-12-29T04:34:10;11.98;;;1.58;;
38683;SDS011;24910;53.248;-6.134;2022-12-29T04:36:39;13.20;;;1.40;;
38683;SDS011;24910;53.248;-6.134;2022-12-29T04:39:09;10.13;;;1.55;;
38683;SDS011;24910;53.248;-6.134;2022-12-29T04:41:40;9.75;;;1.65;;
38683;SDS011;24910;53.248;-6.134;2022-12-29T04:44:14;15.82;;;1.88;;
38683;SDS011;24910;53.248;-6.134;2022-12-29T04:47:02;9.23;;;1.52;;
38683;SDS011;24910;53.248;-6.134;2022-12-29T04:49:42;10.60;;;1.40;;
38683;SDS011;24910;53.248;-6.134;2022-12-29T04:52:31;12.82;;;1.83;;
38683;SDS011;24910;53.248;-6.134;2022-12-29T04:55:03;7.72;;;1.30;;
38683;SDS011;24910;53.248;-6.134;2022-12-29T04:57:33;9.82;;;1.50;;
38683;SDS011;24910;53.248;-6.134;2022-12-29T05:00:03;10.02;;;1.38;;
38683;SDS011;24910;53.248;-6.134;2022-12-29T05:02:35;13.38;;;1.60;;
38683;SDS011;24910;53.248;-6.134;2022-12-29T05:05:05;11.32;;;1.52;;
38683;SDS011;24910;53.248;-6.134;2022-12-29T05:07:39;14.30;;;1.40;;
38683;SDS011;24910;53.248;-6.134;2022-12-29T05:10:10;9.43;;;1.40;;
38683;SDS011;24910;53.248;-6.134;2022-12-29T05:12:40;12.32;;;1.65;;
38683;SDS011;24910;53.248;-6.134;2022-12-29T05:15:11;9.68;;;1.35;;
38683;SDS011;24910;53.248;-6.134;2022-12-29T05:17:42;12.57;;;1.80;;
38683;SDS011;24910;53.248;-6.134;2022-12-29T05:20:11;8.13;;;1.30;;
38683;SDS011;24910;53.248;-6.134;2022-12-29T05:22:41;10.43;;;1.40;;
38683;SDS011;24910;53.248;-6.134;2022-12-29T05:25:12;9.95;;;1.40;;
38683;SDS011;24910;53.248;-6.134;2022-12-29T05:27:51;16.02;;;1.50;;
38683;SDS011;24910;53.248;-6.134;2022-12-29T05:30:35;8.68;;;1.25;;
38683;SDS011;24910;53.248;-6.134;2022-12-29T05:33:04;9.00;;;1.38;;
38683;SDS011;24910;53.248;-6.134;2022-12-29T05:35:34;9.90;;;1.27;;
38683;SDS011;24910;53.248;-6.134;2022-12-29T05:38:03;9.60;;;1.30;;
38683;SDS011;24910;53.248;-6.134;2022-12-29T05:40:35;10.27;;;1.63;;
38683;SDS011;24910;53.248;-6.134;2022-12-29T05:43:11;7.10;;;1.20;;
38683;SDS011;24910;53.248;-6.134;2022-12-29T05:46:00;10.85;;;1.33;;
38683;SDS011;24910;53.248;-6.134;2022-12-29T05:48:45;10.15;;;1.40;;
38683;SDS011;24910;53.248;-6.134;2022-12-29T05:51:24;9.35;;;1.70;;
38683;SDS011;24910;53.248;-6.134;2022-12-29T05:53:53;10.30;;;1.85;;
38683;SDS011;24910;53.248;-6.134;2022-12-29T05:56:24;10.60;;;1.70;;
38683;SDS011;24910;53.248;-6.134;2022-12-29T05:58:57;17.67;;;2.03;;
38683;SDS011;24910;53.248;-6.134;2022-12-29T06:01:26;10.55;;;1.65;;
38683;SDS011;24910;53.248;-6.134;2022-12-29T06:03:56;21.23;;;2.25;;
38683;SDS011;24910;53.248;-6.134;2022-12-29T06:06:25;14.75;;;1.90;;
38683;SDS011;24910;53.248;-6.134;2022-12-29T06:08:55;13.63;;;1.85;;
38683;SDS011;24910;53.248;-6.134;2022-12-29T06:11:26;9.52;;;1.50;;
38683;SDS011;24910;53.248;-6.134;2022-12-29T06:13:58;17.25;;;2.30;;
38683;SDS011;24910;53.248;-6.134;2022-12-29T06:16:28;17.83;;;1.70;;
38683;SDS011;24910;53.248;-6.134;2022-12-29T06:19:00;14.40;;;2.15;;
38683;SDS011;24910;53.248;-6.134;2022-12-29T06:21:30;14.15;;;1.90;;
38683;SDS011;24910;53.248;-6.134;2022-12-29T06:24:00;10.20;;;2.22;;
38683;SDS011;24910;53.248;-6.134;2022-12-29T06:26:31;10.35;;;1.88;;
38683;SDS011;24910;53.248;-6.134;2022-12-29T06:29:00;14.70;;;1.55;;
38683;SDS011;24910;53.248;-6.134;2022-12-29T06:31:30;11.05;;;1.77;;
38683;SDS011;24910;53.248;-6.134;2022-12-29T06:33:59;13.63;;;2.65;;
38683;SDS011;24910;53.248;-6.134;2022-12-29T06:36:35;16.25;;;2.33;;
38683;SDS011;24910;53.248;-6.134;2022-12-29T06:39:04;16.20;;;2.55;;
38683;SDS011;24910;53.248;-6.134;2022-12-29T06:41:35;16.63;;;2.42;;
38683;SDS011;24910;53.248;-6.134;2022-12-29T06:44:37;11.75;;;1.98;;
38683;SDS011;24910;53.248;-6.134;2022-12-29T06:47:09;14.25;;;1.92;;
38683;SDS011;24910;53.248;-6.134;2022-12-29T06:49:38;18.73;;;2.40;;
38683;SDS011;24910;53.248;-6.134;2022-12-29T06:52:07;13.15;;;2.00;;
38683;SDS011;24910;53.248;-6.134;2022-12-29T06:54:39;21.52;;;2.42;;
38683;SDS011;24910;53.248;-6.134;2022-12-29T06:57:09;12.82;;;1.77;;
38683;SDS011;24910;53.248;-6.134;2022-12-29T06:59:38;12.88;;;1.70;;
38683;SDS011;24910;53.248;-6.134;2022-12-29T07:02:08;17.30;;;2.20;;
38683;SDS011;24910;53.248;-6.134;2022-12-29T07:04:39;14.43;;;2.03;;
38683;SDS011;24910;53.248;-6.134;2022-12-29T07:07:08;8.90;;;1.52;;
38683;SDS011;24910;53.248;-6.134;2022-12-29T07:09:37;11.73;;;1.80;;
38683;SDS011;24910;53.248;-6.134;2022-12-29T07:12:06;10.85;;;1.77;;
38683;SDS011;24910;53.248;-6.134;2022-12-29T07:14:37;14.95;;;2.45;;
38683;SDS011;24910;53.248;-6.134;2022-12-29T07:17:09;12.05;;;2.03;;
38683;SDS011;24910;53.248;-6.134;2022-12-29T07:19:38;14.32;;;2.10;;
38683;SDS011;24910;53.248;-6.134;2022-12-29T07:22:08;11.57;;;1.80;;
38683;SDS011;24910;53.248;-6.134;2022-12-29T07:24:38;10.82;;;1.90;;
38683;SDS011;24910;53.248;-6.134;2022-12-29T07:27:07;10.20;;;1.45;;
38683;SDS011;24910;53.248;-6.134;2022-12-29T07:29:37;12.30;;;1.80;;
38683;SDS011;24910;53.248;-6.134;2022-12-29T07:32:06;10.07;;;1.95;;
38683;SDS011;24910;53.248;-6.134;2022-12-29T07:34:35;16.17;;;2.08;;
38683;SDS011;24910;53.248;-6.134;2022-12-29T07:37:06;11.40;;;1.98;;
38683;SDS011;24910;53.248;-6.134;2022-12-29T07:39:35;11.32;;;1.90;;
38683;SDS011;24910;53.248;-6.134;2022-12-29T07:42:04;10.82;;;1.83;;
38683;SDS011;24910;53.248;-6.134;2022-12-29T07:44:42;14.05;;;1.60;;
38683;SDS011;24910;53.248;-6.134;2022-12-29T07:47:26;9.77;;;1.65;;
38683;SDS011;24910;53.248;-6.134;2022-12-29T07:49:55;10.13;;;2.25;;
38683;SDS011;24910;53.248;-6.134;2022-12-29T07:52:24;12.07;;;1.63;;
38683;SDS011;24910;53.248;-6.134;2022-12-29T07:54:53;14.80;;;1.90;;
38683;SDS011;24910;53.248;-6.134;2022-12-29T07:57:22;10.05;;;1.80;;
38683;SDS011;24910;53.248;-6.134;2022-12-29T07:59:59;9.57;;;1.35;;
38683;SDS011;24910;53.248;-6.134;2022-12-29T08:02:37;11.70;;;1.63;;
38683;SDS011;24910;53.248;-6.134;2022-12-29T08:05:07;6.15;;;1.48;;
38683;SDS011;24910;53.248;-6.134;2022-12-29T08:07:36;9.80;;;1.70;;
38683;SDS011;24910;53.248;-6.134;2022-12-29T08:10:06;12.20;;;1.63;;
38683;SDS011;24910;53.248;-6.134;2022-12-29T08:12:35;19.85;;;2.30;;
38683;SDS011;24910;53.248;-6.134;2022-12-29T08:15:07;12.13;;;1.40;;
38683;SDS011;24910;53.248;-6.134;2022-12-29T08:17:38;10.40;;;1.45;;
38683;SDS011;24910;53.248;-6.134;2022-12-29T08:20:08;9.02;;;1.65;;
38683;SDS011;24910;53.248;-6.134;2022-12-29T08:22:37;11.75;;;1.48;;
38683;SDS011;24910;53.248;-6.134;2022-12-29T08:25:07;6.68;;;1.45;;
38683;SDS011;24910;53.248;-6.134;2022-12-29T08:27:36;12.48;;;1.55;;
38683;SDS011;24910;53.248;-6.134;2022-12-29T08:30:07;11.63;;;1.88;;
38683;SDS011;24910;53.248;-6.134;2022-12-29T08:32:37;10.25;;;1.65;;
38683;SDS011;24910;53.248;-6.134;2022-12-29T08:35:07;7.82;;;1.45;;
38683;SDS011;24910;53.248;-6.134;2022-12-29T08:37:36;10.10;;;1.23;;
38683;SDS011;24910;53.248;-6.134;2022-12-29T08:40:06;8.45;;;1.27;;
38683;SDS011;24910;53.248;-6.134;2022-12-29T08:42:36;10.03;;;1.33;;
38683;SDS011;24910;53.248;-6.134;2022-12-29T08:45:07;10.40;;;1.20;;
38683;SDS011;24910;53.248;-6.134;2022-12-29T08:47:36;12.50;;;1.92;;
38683;SDS011;24910;53.248;-6.134;2022-12-29T08:50:06;8.30;;;1.58;;
38683;SDS011;24910;53.248;-6.134;2022-12-29T08:52:35;9.73;;;1.17;;
38683;SDS011;24910;53.248;-6.134;2022-12-29T08:55:04;10.55;;;1.85;;
38683;SDS011;24910;53.248;-6.134;2022-12-29T08:57:34;13.25;;;1.50;;
38683;SDS011;24910;53.248;-6.134;2022-12-29T09:00:17;4.60;;;1.15;;
38683;SDS011;24910;53.248;-6.134;2022-12-29T09:02:48;7.13;;;1.30;;
38683;SDS011;24910;53.248;-6.134;2022-12-29T09:05:17;10.65;;;1.75;;
38683;SDS011;24910;53.248;-6.134;2022-12-29T09:07:46;4.35;;;1.23;;
38683;SDS011;24910;53.248;-6.134;2022-12-29T09:10:18;4.47;;;1.33;;
38683;SDS011;24910;53.248;-6.134;2022-12-29T09:12:49;9.25;;;1.27;;
38683;SDS011;24910;53.248;-6.134;2022-12-29T09:15:19;10.52;;;1.30;;
38683;SDS011;24910;53.248;-6.134;2022-12-29T09:17:48;7.63;;;1.33;;
38683;SDS011;24910;53.248;-6.134;2022-12-29T09:20:18;9.48;;;1.35;;
38683;SDS011;24910;53.248;-6.134;2022-12-29T09:22:47;8.32;;;1.40;;
38683;SDS011;24910;53.248;-6.134;2022-12-29T09:25:16;10.85;;;1.65;;
38683;SDS011;24910;53.248;-6.134;2022-12-29T09:27:46;10.20;;;1.15;;
38683;SDS011;24910;53.248;-6.134;2022-12-29T09:30:15;6.85;;;1.20;;
38683;SDS011;24910;53.248;-6.134;2022-12-29T09:32:46;4.97;;;1.00;;
38683;SDS011;24910;53.248;-6.134;2022-12-29T09:35:21;7.88;;;1.05;;
38683;SDS011;24910;53.248;-6.134;2022-12-29T09:37:50;7.18;;;1.23;;
38683;SDS011;24910;53.248;-6.134;2022-12-29T09:40:26;8.40;;;1.40;;
38683;SDS011;24910;53.248;-6.134;2022-12-29T09:46:02;6.55;;;1.20;;
38683;SDS011;24910;53.248;-6.134;2022-12-29T09:48:41;9.98;;;1.17;;
38683;SDS011;24910;53.248;-6.134;2022-12-29T09:51:16;6.90;;;1.10;;
38683;SDS011;24910;53.248;-6.134;2022-12-29T09:53:49;3.70;;;0.93;;
38683;SDS011;24910;53.248;-6.134;2022-12-29T09:56:24;9.52;;;1.17;;
38683;SDS011;24910;53.248;-6.134;2022-12-29T09:58:55;5.57;;;0.90;;
38683;SDS011;24910;53.248;-6.134;2022-12-29T10:01:30;9.93;;;1.23;;
38683;SDS011;24910;53.248;-6.134;2022-12-29T10:04:03;9.73;;;1.10;;
38683;SDS011;24910;53.248;-6.134;2022-12-29T10:06:35;7.05;;;1.15;;
38683;SDS011;24910;53.248;-6.134;2022-12-29T10:09:29;9.20;;;0.90;;
38683;SDS011;24910;53.248;-6.134;2022-12-29T10:12:11;6.25;;;1.30;;
38683;SDS011;24910;53.248;-6.134;2022-12-29T10:14:50;5.65;;;1.33;;
38683;SDS011;24910;53.248;-6.134;2022-12-29T10:17:33;10.60;;;1.50;;
38683;SDS011;24910;53.248;-6.134;2022-12-29T10:20:16;15.43;;;1.88;;
38683;SDS011;24910;53.248;-6.134;2022-12-29T10:22:59;14.05;;;1.40;;
38683;SDS011;24910;53.248;-6.134;2022-12-29T10:25:40;11.10;;;1.23;;
38683;SDS011;24910;53.248;-6.134;2022-12-29T10:30:46;6.90;;;1.48;;
38683;SDS011;24910;53.248;-6.134;2022-12-29T10:33:17;10.05;;;1.50;;
38683;SDS011;24910;53.248;-6.134;2022-12-29T10:35:52;10.77;;;1.70;;
38683;SDS011;24910;53.248;-6.134;2022-12-29T10:38:23;9.20;;;1.63;;
38683;SDS011;24910;53.248;-6.134;2022-12-29T10:40:57;14.25;;;2.00;;
38683;SDS011;24910;53.248;-6.134;2022-12-29T10:43:30;7.95;;;1.50;;
38683;SDS011;24910;53.248;-6.134;2022-12-29T10:46:03;12.98;;;1.58;;
38683;SDS011;24910;53.248;-6.134;2022-12-29T10:48:38;8.45;;;1.88;;
38683;SDS011;24910;53.248;-6.134;2022-12-29T10:51:08;7.88;;;1.52;;
38683;SDS011;24910;53.248;-6.134;2022-12-29T10:53:38;5.88;;;1.23;;
38683;SDS011;24910;53.248;-6.134;2022-12-29T10:56:14;8.27;;;1.65;;
38683;SDS011;24910;53.248;-6.134;2022-12-29T10:58:48;8.45;;;1.15;;
38683;SDS011;24910;53.248;-6.134;2022-12-29T11:01:19;8.40;;;1.02;;
38683;SDS011;24910;53.248;-6.134;2022-12-29T11:03:55;5.45;;;1.40;;
38683;SDS011;24910;53.248;-6.134;2022-12-29T11:06:32;9.25;;;1.20;;
38683;SDS011;24910;53.248;-6.134;2022-12-29T11:09:02;6.28;;;1.48;;
38683;SDS011;24910;53.248;-6.134;2022-12-29T11:11:40;6.40;;;1.35;;
38683;SDS011;24910;53.248;-6.134;2022-12-29T11:14:11;3.88;;;0.93;;
38683;SDS011;24910;53.248;-6.134;2022-12-29T11:16:42;3.47;;;0.90;;
38683;SDS011;24910;53.248;-6.134;2022-12-29T11:19:19;4.93;;;1.10;;
38683;SDS011;24910;53.248;-6.134;2022-12-29T11:21:51;6.85;;;0.68;;
38683;SDS011;24910;53.248;-6.134;2022-12-29T11:24:22;5.20;;;0.85;;
38683;SDS011;24910;53.248;-6.134;2022-12-29T11:26:53;2.13;;;0.70;;
38683;SDS011;24910;53.248;-6.134;2022-12-29T11:29:25;4.63;;;0.75;;
38683;SDS011;24910;53.248;-6.134;2022-12-29T11:31:56;3.63;;;0.50;;
38683;SDS011;24910;53.248;-6.134;2022-12-29T11:34:30;1.10;;;0.50;;
38683;SDS011;24910;53.248;-6.134;2022-12-29T11:37:03;2.20;;;0.80;;
38683;SDS011;24910;53.248;-6.134;2022-12-29T11:39:36;4.70;;;0.60;;
38683;SDS011;24910;53.248;-6.134;2022-12-29T11:42:13;2.72;;;0.50;;
38683;SDS011;24910;53.248;-6.134;2022-12-29T11:44:44;0.85;;;0.40;;
38683;SDS011;24910;53.248;-6.134;2022-12-29T11:47:23;3.50;;;0.38;;
38683;SDS011;24910;53.248;-6.134;2022-12-29T11:49:56;3.55;;;0.60;;
38683;SDS011;24910;53.248;-6.134;2022-12-29T11:52:31;3.78;;;0.52;;
38683;SDS011;24910;53.248;-6.134;2022-12-29T11:55:03;1.33;;;0.57;;
38683;SDS011;24910;53.248;-6.134;2022-12-29T11:57:35;1.73;;;0.50;;
38683;SDS011;24910;53.248;-6.134;2022-12-29T12:00:09;1.63;;;0.50;;
38683;SDS011;24910;53.248;-6.134;2022-12-29T12:02:45;3.58;;;0.60;;
38683;SDS011;24910;53.248;-6.134;2022-12-29T12:05:28;4.15;;;0.70;;
38683;SDS011;24910;53.248;-6.134;2022-12-29T12:08:07;4.75;;;0.98;;
38683;SDS011;24910;53.248;-6.134;2022-12-29T12:10:48;6.80;;;1.63;;
38683;SDS011;24910;53.248;-6.134;2022-12-29T12:13:22;6.75;;;1.40;;
38683;SDS011;24910;53.248;-6.134;2022-12-29T12:16:02;5.47;;;1.00;;
38683;SDS011;24910;53.248;-6.134;2022-12-29T12:18:37;4.93;;;1.50;;
38683;SDS011;24910;53.248;-6.134;2022-12-29T12:21:13;5.40;;;1.20;;
38683;SDS011;24910;53.248;-6.134;2022-12-29T12:23:56;9.13;;;1.20;;
38683;SDS011;24910;53.248;-6.134;2022-12-29T12:26:49;6.82;;;1.20;;
38683;SDS011;24910;53.248;-6.134;2022-12-29T12:29:27;7.07;;;1.00;;
38683;SDS011;24910;53.248;-6.134;2022-12-29T12:32:05;6.13;;;1.25;;
38683;SDS011;24910;53.248;-6.134;2022-12-29T12:34:41;7.60;;;1.33;;
38683;SDS011;24910;53.248;-6.134;2022-12-29T12:40:03;7.75;;;1.33;;
38683;SDS011;24910;53.248;-6.134;2022-12-29T12:42:46;5.43;;;1.20;;
38683;SDS011;24910;53.248;-6.134;2022-12-29T12:45:29;5.60;;;1.10;;
38683;SDS011;24910;53.248;-6.134;2022-12-29T12:48:11;5.70;;;1.15;;
38683;SDS011;24910;53.248;-6.134;2022-12-29T12:50:59;6.75;;;1.40;;
38683;SDS011;24910;53.248;-6.134;2022-12-29T12:53:39;3.95;;;1.20;;
38683;SDS011;24910;53.248;-6.134;2022-12-29T12:56:27;4.20;;;1.05;;
38683;SDS011;24910;53.248;-6.134;2022-12-29T12:59:15;5.75;;;1.23;;
38683;SDS011;24910;53.248;-6.134;2022-12-29T13:01:56;5.32;;;1.48;;
38683;SDS011;24910;53.248;-6.134;2022-12-29T13:04:45;5.72;;;1.20;;
38683;SDS011;24910;53.248;-6.134;2022-12-29T13:07:26;4.22;;;1.10;;
38683;SDS011;24910;53.248;-6.134;2022-12-29T13:10:12;7.50;;;1.00;;
38683;SDS011;24910;53.248;-6.134;2022-12-29T13:13:13;4.82;;;1.17;;
38683;SDS011;24910;53.248;-6.134;2022-12-29T13:15:57;5.38;;;1.17;;
38683;SDS011;24910;53.248;-6.134;2022-12-29T13:18:43;4.65;;;1.20;;
38683;SDS011;24910;53.248;-6.134;2022-12-29T13:21:24;3.92;;;0.98;;
38683;SDS011;24910;53.248;-6.134;2022-12-29T13:24:05;5.13;;;1.20;;
38683;SDS011;24910;53.248;-6.134;2022-12-29T13:26:46;4.20;;;1.17;;
38683;SDS011;24910;53.248;-6.134;2022-12-29T13:29:20;5.65;;;1.05;;
38683;SDS011;24910;53.248;-6.134;2022-12-29T13:32:00;3.38;;;0.90;;
38683;SDS011;24910;53.248;-6.134;2022-12-29T13:34:42;5.63;;;1.00;;
38683;SDS011;24910;53.248;-6.134;2022-12-29T13:37:17;5.15;;;0.95;;
38683;SDS011;24910;53.248;-6.134;2022-12-29T13:39:50;4.20;;;1.00;;
38683;SDS011;24910;53.248;-6.134;2022-12-29T13:42:23;5.00;;;0.88;;
38683;SDS011;24910;53.248;-6.134;2022-12-29T13:44:57;5.00;;;1.20;;
38683;SDS011;24910;53.248;-6.134;2022-12-29T13:47:31;1.27;;;0.60;;
38683;SDS011;24910;53.248;-6.134;2022-12-29T13:50:08;3.50;;;0.75;;
38683;SDS011;24910;53.248;-6.134;2022-12-29T13:52:43;4.07;;;0.75;;
38683;SDS011;24910;53.248;-6.134;2022-12-29T13:55:18;4.38;;;0.63;;
38683;SDS011;24910;53.248;-6.134;2022-12-29T13:57:55;2.55;;;0.57;;
38683;SDS011;24910;53.248;-6.134;2022-12-29T14:00:35;3.10;;;0.70;;
38683;SDS011;24910;53.248;-6.134;2022-12-29T14:03:25;4.80;;;0.70;;
38683;SDS011;24910;53.248;-6.134;2022-12-29T14:06:15;2.30;;;0.60;;
38683;SDS011;24910;53.248;-6.134;2022-12-29T14:08:49;1.45;;;0.43;;
38683;SDS011;24910;53.248;-6.134;2022-12-29T14:11:22;1.23;;;0.50;;
38683;SDS011;24910;53.248;-6.134;2022-12-29T14:13:56;0.85;;;0.50;;
38683;SDS011;24910;53.248;-6.134;2022-12-29T14:16:29;1.27;;;0.47;;
38683;SDS011;24910;53.248;-6.134;2022-12-29T14:19:07;1.65;;;0.57;;
38683;SDS011;24910;53.248;-6.134;2022-12-29T14:21:41;1.95;;;0.60;;
38683;SDS011;24910;53.248;-6.134;2022-12-29T14:33:23;3.25;;;0.90;;
38683;SDS011;24910;53.248;-6.134;2022-12-29T14:35:54;2.88;;;0.70;;
38683;SDS011;24910;53.248;-6.134;2022-12-29T14:38:25;1.83;;;0.57;;
38683;SDS011;24910;53.248;-6.134;2022-12-29T14:41:18;5.07;;;1.20;;
38683;SDS011;24910;53.248;-6.134;2022-12-29T14:43:58;3.83;;;1.10;;
38683;SDS011;24910;53.248;-6.134;2022-12-29T14:49:27;6.35;;;1.48;;
38683;SDS011;24910;53.248;-6.134;2022-12-29T14:52:07;4.45;;;1.50;;
38683;SDS011;24910;53.248;-6.134;2022-12-29T14:57:29;4.35;;;0.82;;
38683;SDS011;24910;53.248;-6.134;2022-12-29T15:00:04;7.38;;;1.08;;
38683;SDS011;24910;53.248;-6.134;2022-12-29T15:02:44;6.15;;;1.10;;
38683;SDS011;24910;53.248;-6.134;2022-12-29T15:05:24;5.63;;;1.38;;
38683;SDS011;24910;53.248;-6.134;2022-12-29T15:07:58;5.13;;;1.05;;
38683;SDS011;24910;53.248;-6.134;2022-12-29T15:10:32;6.28;;;1.10;;
38683;SDS011;24910;53.248;-6.134;2022-12-29T15:13:09;7.60;;;0.93;;
38683;SDS011;24910;53.248;-6.134;2022-12-29T15:15:43;10.57;;;1.63;;
38683;SDS011;24910;53.248;-6.134;2022-12-29T15:18:21;4.75;;;1.08;;
38683;SDS011;24910;53.248;-6.134;2022-12-29T15:20:54;4.75;;;1.50;;
38683;SDS011;24910;53.248;-6.134;2022-12-29T15:23:26;6.45;;;1.23;;
38683;SDS011;24910;53.248;-6.134;2022-12-29T15:25:56;5.45;;;1.40;;
38683;SDS011;24910;53.248;-6.134;2022-12-29T15:31:04;6.22;;;1.50;;
38683;SDS011;24910;53.248;-6.134;2022-12-29T15:33:38;6.35;;;1.25;;
38683;SDS011;24910;53.248;-6.134;2022-12-29T15:36:11;6.07;;;1.20;;
38683;SDS011;24910;53.248;-6.134;2022-12-29T15:38:42;5.68;;;1.48;;
38683;SDS011;24910;53.248;-6.134;2022-12-29T15:41:16;4.38;;;1.30;;
38683;SDS011;24910;53.248;-6.134;2022-12-29T15:43:55;6.38;;;1.10;;
38683;SDS011;24910;53.248;-6.134;2022-12-29T15:46:33;5.00;;;1.10;;
38683;SDS011;24910;53.248;-6.134;2022-12-29T15:49:04;5.88;;;1.40;;
38683;SDS011;24910;53.248;-6.134;2022-12-29T15:51:37;2.83;;;0.85;;
38683;SDS011;24910;53.248;-6.134;2022-12-29T15:54:12;6.95;;;1.08;;
38683;SDS011;24910;53.248;-6.134;2022-12-29T15:56:45;5.40;;;1.17;;